Airport ID:KE16
Update Time (UTC):18 OCT 19 01:49
Wind Speed (Knots):13
Wind Direction (Magnetic):320
Temperature (°C):16
Dew Point (°C):8
Humidity (%):62
Altimeter (inHg):29.97
Density Altitude (Feet):
Visibility (Miles):10
Clouds (Hundreds of feet):CLR
Present Weather:NO PRECIPITATION
METAR:METAR KE16 180145Z AUTO 33014G18KT 10SM CLR 16/08 A2997 RMK AO2

The data displayed is for advisory purposes only and is not to be used for flight planning or operations.

This page is not automatically refreshed. Reload the page to see current data.